Time;durP1;ratioP1;P1;durP2;ratioP2;P2;SDS_P1;SDS_P2;PMS_P1;PMS_P2;Temp;Humidity;BMP_temperature;BMP_pressure;BME280_temperature;BME280_humidity;BME280_pressure;Samples;Min_cycle;Max_cycle;Signal;HPM_P1;HPM_P2
2022/04/04 04:01:09;;;;;;;3.23;2.93;;;-1.10;96.30;;;;;;5684989;23;20492;-76
2022/04/04 04:03:36;;;;;;;3.73;2.27;;;-1.20;96.30;;;;;;4958964;28;20421;-77
2022/04/04 04:06:11;;;;;;;4.73;2.60;;;-1.20;96.30;;;;;;4958036;28;20193;-75
2022/04/04 04:08:41;;;;;;;4.03;2.00;;;-1.10;96.30;;;;;;4958771;28;20435;-75
2022/04/04 04:11:06;;;;;;;3.17;2.77;;;-1.10;96.30;;;;;;4965954;28;20437;-75
2022/04/04 04:13:32;;;;;;;2.57;2.37;;;-1.00;96.30;;;;;;4978382;28;20479;-75
2022/04/04 04:15:58;;;;;;;1.90;1.70;;;-1.00;96.30;;;;;;4978597;28;20181;-77
2022/04/04 04:18:24;;;;;;;5.07;2.73;;;-1.00;96.30;;;;;;4995676;28;20585;-75
2022/04/04 04:20:50;;;;;;;2.80;2.43;;;;;;;;;;4996144;28;20436;-78
2022/04/04 04:23:16;;;;;;;3.23;2.87;;;-0.90;96.30;;;;;;4995741;28;20173;-77
2022/04/04 04:25:42;;;;;;;3.93;2.23;;;-1.00;96.30;;;;;;4977984;28;20420;-78
2022/04/04 04:28:09;;;;;;;2.77;2.40;;;-1.00;96.30;;;;;;4977889;28;20804;-76
2022/04/04 04:30:34;;;;;;;3.53;3.00;;;-1.10;96.30;;;;;;4995722;28;20604;-76
2022/04/04 04:33:00;;;;;;;4.17;3.10;;;-1.00;96.30;;;;;;4995658;28;20502;-75
2022/04/04 04:35:26;;;;;;;5.50;2.90;;;-1.00;96.30;;;;;;4959678;28;20185;-75
2022/04/04 04:37:52;;;;;;;3.90;3.30;;;-0.90;96.30;;;;;;4975846;28;20178;-76
2022/04/04 04:40:18;;;;;;;2.50;2.30;;;-0.80;96.30;;;;;;4976134;28;20174;-77
2022/04/04 04:42:45;;;;;;;4.07;2.97;;;-0.80;96.30;;;;;;4961203;28;20254;-76
2022/04/04 04:45:12;;;;;;;3.30;2.80;;;-0.90;96.30;;;;;;4995606;28;20417;-75
2022/04/04 04:47:38;;;;;;;3.03;2.77;;;-0.90;96.30;;;;;;4977428;28;20401;-76
2022/04/04 04:50:05;;;;;;;3.17;2.87;;;-0.80;96.30;;;;;;4977953;28;20416;-75
2022/04/04 04:52:32;;;;;;;3.83;3.17;;;-0.80;96.30;;;;;;4972104;28;21005;-77
2022/04/04 04:54:58;;;;;;;3.30;3.00;;;-0.70;96.30;;;;;;4976023;28;20420;-75
2022/04/04 04:57:23;;;;;;;4.33;3.20;;;-0.60;96.30;;;;;;4958050;28;20496;-83
2022/04/04 04:59:49;;;;;;;3.13;2.80;;;-0.60;96.30;;;;;;4974591;28;20182;-75
2022/04/04 05:02:14;;;;;;;4.53;3.03;;;-0.50;96.30;;;;;;4975701;28;20237;-75
2022/04/04 05:04:40;;;;;;;3.63;2.80;;;-0.50;96.30;;;;;;4958408;28;20174;-75
2022/04/04 05:07:08;;;;;;;4.57;2.80;;;-0.50;96.30;;;;;;4958390;28;20310;-76
2022/04/04 05:09:34;;;;;;;4.30;3.00;;;-0.40;96.30;;;;;;4975192;28;20166;-75
2022/04/04 05:12:00;;;;;;;3.20;2.93;;;-0.30;96.30;;;;;;4975552;28;20516;-77
2022/04/04 05:14:25;;;;;;;3.13;2.83;;;-0.30;96.30;;;;;;4976117;28;20417;-75
2022/04/04 05:16:53;;;;;;;3.43;2.90;;;-0.30;96.30;;;;;;4990595;28;20642;-75
2022/04/04 05:19:22;;;;;;;3.20;2.97;;;-0.30;96.30;;;;;;4994347;28;20575;-75
2022/04/04 05:21:48;;;;;;;2.90;2.30;;;-0.20;96.30;;;;;;4977579;28;20468;-74
2022/04/04 05:24:23;;;;;;;8.10;3.20;;;;;;;;;;4985101;28;20939;-80
2022/04/04 05:26:48;;;;;;;3.70;2.30;;;-0.10;96.30;;;;;;4963794;28;20424;-76
2022/04/04 05:29:28;;;;;;;5.10;3.93;;;0.00;96.30;;;;;;4977059;28;20410;-75
2022/04/04 10:55:28;;;;;;;6.00;3.43;;;7.40;84.70;;;;;;4933588;29;20498;-77
2022/04/04 10:58:22;;;;;;;6.33;3.50;;;7.30;83.30;;;;;;4917663;29;20428;-78
2022/04/04 11:00:54;;;;;;;4.13;3.70;;;6.40;83.60;;;;;;4905148;29;20440;-77
2022/04/04 11:03:34;;;;;;;4.50;3.97;;;7.20;84.70;;;;;;4904082;29;20575;-80
2022/04/04 11:09:15;;;;;;;3.00;2.80;;;6.70;83.20;;;;;;4936486;29;20422;-79
2022/04/04 11:12:09;;;;;;;4.53;3.37;;;6.40;82.80;;;;;;4935629;29;20431;-79
2022/04/04 11:14:38;;;;;;;4.30;3.97;;;6.00;84.60;;;;;;4918488;29;20432;-78
2022/04/04 11:17:06;;;;;;;6.53;4.00;;;6.30;87.40;;;;;;4935240;29;20419;-79
2022/04/04 11:19:50;;;;;;;3.73;3.40;;;6.60;82.70;;;;;;4904081;29;20439;-79
2022/04/04 11:22:23;;;;;;;4.33;3.87;;;6.90;84.90;;;;;;4905126;29;20437;-78
2022/04/04 11:24:51;;;;;;;5.57;4.13;;;6.60;84.40;;;;;;4891380;29;20448;-75
2022/04/04 11:27:18;;;;;;;7.33;4.50;;;6.90;82.60;;;;;;4906847;29;20843;-78
2022/04/04 11:29:43;;;;;;;6.10;4.30;;;6.90;85.50;;;;;;4911187;29;20456;-76
2022/04/04 11:32:19;;;;;;;8.80;4.70;;;7.10;86.90;;;;;;4916447;29;20906;-76
2022/04/04 11:34:44;;;;;;;5.67;4.20;;;7.20;84.70;;;;;;4915290;29;20647;-77
2022/04/04 11:37:18;;;;;;;4.60;4.20;;;7.80;84.80;;;;;;4915918;29;20416;-75
2022/04/04 11:39:47;;;;;;;6.50;4.47;;;8.00;81.70;;;;;;4898831;29;20199;-75
2022/04/04 14:17:44;;;;;;;4.57;2.87;;;5.90;84.40;;;;;;4992341;28;20469;-78
2022/04/04 14:20:11;;;;;;;2.47;2.20;;;5.70;84.60;;;;;;4993436;28;20950;-78
2022/04/04 14:22:36;;;;;;;3.00;2.70;;;5.40;84.80;;;;;;4993591;28;20198;-78
2022/04/04 14:25:02;;;;;;;3.27;2.47;;;5.40;85.90;;;;;;4994025;28;20405;-79
2022/04/04 14:27:29;;;;;;;2.77;2.23;;;5.40;87.90;;;;;;4976363;28;20192;-79
2022/04/04 14:29:54;;;;;;;3.73;3.20;;;4.80;89.60;;;;;;4976589;28;20417;-80
2022/04/04 14:32:21;;;;;;;7.30;3.73;;;4.80;94.00;;;;;;4993655;28;20491;-80
2022/04/04 14:34:48;;;;;;;4.50;2.53;;;4.50;95.30;;;;;;4994743;28;20223;-79
2022/04/04 14:37:14;;;;;;;4.97;2.50;;;4.60;96.30;;;;;;4976456;28;20988;-78
2022/04/04 14:39:39;;;;;;;2.90;2.30;;;4.60;96.30;;;;;;4986653;28;20575;-78
2022/04/04 14:42:13;;;;;;;4.60;2.90;;;4.20;96.30;;;;;;4993276;28;20209;-79
2022/04/04 14:44:44;;;;;;;8.83;2.70;;;3.90;96.30;;;;;;4992481;28;20739;-82
2022/04/04 14:47:10;;;;;;;2.63;2.43;;;3.50;96.30;;;;;;4967332;28;20516;-79
2022/04/04 14:49:35;;;;;;;4.37;2.80;;;3.30;96.30;;;;;;4960482;28;20426;-76
2022/04/04 14:52:01;;;;;;;4.67;3.13;;;3.10;96.30;;;;;;4956756;28;20488;-77
2022/04/04 14:54:28;;;;;;;6.50;2.70;;;2.90;96.30;;;;;;4984453;28;20171;-77
2022/04/04 14:56:56;;;;;;;3.40;3.10;;;2.90;96.30;;;;;;4976065;28;20324;-79
2022/04/04 14:59:21;;;;;;;3.37;2.80;;;2.90;96.30;;;;;;4976571;28;20801;-79
2022/04/04 15:01:48;;;;;;;3.93;2.83;;;2.90;96.30;;;;;;4986197;28;20485;-79
2022/04/04 15:04:13;;;;;;;3.40;2.70;;;2.80;96.30;;;;;;4974800;28;20427;-77
2022/04/04 15:06:39;;;;;;;3.80;3.43;;;2.80;96.30;;;;;;4993228;28;20416;-76
2022/04/04 15:09:09;;;;;;;3.83;3.00;;;2.80;96.30;;;;;;4957261;28;20174;-76
2022/04/04 15:11:35;;;;;;;7.63;4.30;;;2.70;96.30;;;;;;4985004;28;20286;-76
2022/04/04 15:14:03;;;;;;;3.40;3.17;;;2.70;96.30;;;;;;4978831;28;20438;-77
2022/04/04 15:16:29;;;;;;;3.93;3.43;;;2.70;96.30;;;;;;4983445;28;20444;-76
2022/04/04 15:18:54;;;;;;;4.53;3.10;;;2.70;96.30;;;;;;4992239;28;20424;-76
2022/04/04 15:21:20;;;;;;;2.83;2.60;;;2.80;96.30;;;;;;4975213;28;20437;-76
2022/04/04 15:23:46;;;;;;;2.60;2.40;;;2.70;96.30;;;;;;4992649;28;20170;-77
2022/04/04 15:26:12;;;;;;;4.60;3.70;;;2.40;96.30;;;;;;4975137;28;20269;-77
2022/04/04 15:28:37;;;;;;;3.73;2.90;;;2.20;96.30;;;;;;4970713;28;20504;-77
2022/04/04 15:31:03;;;;;;;4.30;3.80;;;2.00;96.30;;;;;;4989152;28;20300;-76
2022/04/04 15:33:29;;;;;;;3.30;2.97;;;1.90;96.30;;;;;;4985983;28;20682;-80
2022/04/04 15:35:54;;;;;;;5.83;3.93;;;1.90;96.30;;;;;;4970269;28;20175;-79
2022/04/04 15:38:20;;;;;;;8.57;4.20;;;1.70;96.30;;;;;;4967580;28;20209;-78
2022/04/04 15:40:46;;;;;;;5.97;3.90;;;1.60;96.30;;;;;;4981698;28;20239;-79
2022/04/04 15:43:14;;;;;;;7.23;4.00;;;1.50;96.30;;;;;;4967975;28;20519;-79
2022/04/04 15:45:42;;;;;;;7.20;5.40;;;1.40;96.30;;;;;;4971067;28;20451;-80
2022/04/04 15:48:07;;;;;;;7.90;4.43;;;1.40;96.30;;;;;;4992469;28;20428;-77
2022/04/04 15:50:33;;;;;;;6.60;5.37;;;1.30;96.30;;;;;;4984033;28;20445;-76
2022/04/04 15:52:58;;;;;;;4.30;3.90;;;1.30;96.30;;;;;;4976899;28;20206;-77
2022/04/04 15:55:24;;;;;;;9.67;4.40;;;1.30;96.30;;;;;;4976988;28;20189;-77
2022/04/04 15:57:50;;;;;;;4.20;3.80;;;1.20;96.30;;;;;;4982171;28;20184;-77
2022/04/04 16:00:16;;;;;;;10.43;4.20;;;1.20;96.30;;;;;;4996100;28;20185;-77
2022/04/04 16:02:42;;;;;;;4.60;4.20;;;1.10;96.30;;;;;;4996168;28;20174;-78
2022/04/04 16:05:09;;;;;;;5.20;3.70;;;1.00;96.30;;;;;;4995713;28;20467;-78
2022/04/04 16:07:34;;;;;;;6.83;4.70;;;1.00;96.30;;;;;;4978540;28;20943;-73
2022/04/04 16:10:01;;;;;;;6.57;5.13;;;1.00;96.30;;;;;;4996086;28;20420;-73
2022/04/04 16:12:30;;;;;;;6.27;5.20;;;0.90;96.30;;;;;;4988917;28;20252;-73
2022/04/04 16:14:55;;;;;;;7.00;5.50;;;1.00;96.30;;;;;;4991000;28;20409;-73
2022/04/04 16:17:21;;;;;;;10.00;4.97;;;1.10;96.30;;;;;;4972846;28;20437;-74
2022/04/04 16:19:46;;;;;;;6.10;5.10;;;1.10;96.30;;;;;;4992909;28;20253;-74
2022/04/04 16:22:12;;;;;;;5.33;4.83;;;0.90;96.30;;;;;;4988086;28;20208;-75
2022/04/04 16:24:38;;;;;;;5.67;5.07;;;1.00;96.30;;;;;;4995271;28;20650;-74
2022/04/04 16:27:04;;;;;;;6.63;5.33;;;1.00;96.30;;;;;;4995757;28;20183;-77
2022/04/04 16:29:29;;;;;;;12.70;5.70;;;1.10;96.30;;;;;;4977671;28;20831;-77
2022/04/04 16:31:55;;;;;;;7.50;5.93;;;1.00;96.30;;;;;;4991896;28;20449;-79
2022/04/04 16:34:20;;;;;;;5.90;4.80;;;1.10;96.30;;;;;;4995714;28;20174;-79
2022/04/04 16:36:47;;;;;;;7.17;4.13;;;1.10;96.30;;;;;;4994547;28;20232;-78
2022/04/04 16:39:14;;;;;;;5.53;4.77;;;1.20;96.30;;;;;;4989857;28;20517;-77
2022/04/04 16:41:40;;;;;;;6.50;4.57;;;1.20;96.30;;;;;;4978380;28;21063;-79
2022/04/04 16:44:05;;;;;;;3.93;3.17;;;1.10;96.30;;;;;;4992014;28;20418;-79
2022/04/04 16:46:32;;;;;;;5.70;3.60;;;1.00;96.30;;;;;;4976536;28;20167;-79
2022/04/04 16:48:58;;;;;;;6.07;5.20;;;0.90;96.30;;;;;;4980901;28;20170;-78
2022/04/04 16:51:24;;;;;;;8.07;5.10;;;0.90;96.30;;;;;;4978281;28;20444;-79
2022/04/04 16:53:49;;;;;;;7.10;6.30;;;0.90;96.30;;;;;;4994238;28;20197;-80
2022/04/04 16:56:17;;;;;;;9.67;6.20;;;0.90;96.30;;;;;;4978592;28;20626;-79
2022/04/04 16:58:42;;;;;;;8.40;5.17;;;0.80;96.30;;;;;;4978025;28;20616;-78
2022/04/04 17:01:08;;;;;;;5.10;3.77;;;0.80;96.30;;;;;;4994625;28;20484;-80
2022/04/04 17:03:33;;;;;;;9.07;6.20;;;0.80;96.30;;;;;;4990183;28;20189;-78
2022/04/04 17:05:58;;;;;;;15.33;5.70;;;0.90;96.30;;;;;;4977382;28;20182;-75
2022/04/04 17:08:24;;;;;;;12.27;6.70;;;0.90;96.30;;;;;;4993671;28;20169;-75
2022/04/04 17:10:51;;;;;;;8.60;7.47;;;0.90;96.30;;;;;;4993237;28;20227;-76
2022/04/04 17:13:17;;;;;;;13.87;8.00;;;0.90;96.30;;;;;;4994803;28;20195;-75
2022/04/04 17:15:42;;;;;;;7.83;6.40;;;0.90;96.30;;;;;;4993724;28;20436;-76
2022/04/04 17:18:08;;;;;;;16.80;6.23;;;0.80;96.30;;;;;;4994346;28;20242;-76
2022/04/04 17:20:33;;;;;;;10.13;6.50;;;0.80;96.30;;;;;;4994756;28;20634;-76
2022/04/04 17:22:59;;;;;;;7.80;6.17;;;0.70;96.30;;;;;;4993384;28;20214;-75
2022/04/04 17:25:26;;;;;;;7.90;7.10;;;0.70;96.30;;;;;;4994797;28;20629;-75
2022/04/04 17:27:51;;;;;;;9.47;6.00;;;0.70;96.30;;;;;;4977034;28;20425;-74
2022/04/04 17:30:17;;;;;;;6.80;6.07;;;0.70;96.30;;;;;;4994622;28;20743;-75
2022/04/04 17:32:42;;;;;;;3.90;3.50;;;0.70;96.30;;;;;;4994176;28;20201;-76
2022/04/04 17:35:08;;;;;;;9.83;6.67;;;0.70;96.30;;;;;;4994605;28;20174;-78
2022/04/04 17:37:34;;;;;;;10.03;6.53;;;0.70;96.30;;;;;;4976869;28;20173;-75
2022/04/04 17:40:04;;;;;;;7.00;6.13;;;0.70;96.30;;;;;;4989501;28;20234;-76
2022/04/04 18:56:22;;;;;;;10.70;7.40;;;1.30;96.30;;;;;;5167447;23;20575;-72
2022/04/04 18:58:49;;;;;;;9.50;7.30;;;1.20;96.30;;;;;;4992960;28;20456;-73
2022/04/04 19:01:14;;;;;;;6.23;5.53;;;1.30;96.30;;;;;;4982805;28;20436;-74
2022/04/04 19:03:39;;;;;;;8.23;7.23;;;1.20;96.30;;;;;;5012682;28;20966;-73
2022/04/04 19:06:05;;;;;;;9.00;6.53;;;1.20;96.30;;;;;;5012723;28;20259;-73
2022/04/04 19:08:31;;;;;;;6.97;6.03;;;1.20;96.30;;;;;;5011692;28;20184;-73
2022/04/04 19:10:57;;;;;;;8.30;7.10;;;1.20;96.30;;;;;;5012502;28;20200;-73
2022/04/04 19:13:23;;;;;;;8.30;7.17;;;1.20;96.30;;;;;;4994812;28;20204;-73
2022/04/04 19:15:49;;;;;;;9.07;8.00;;;1.30;96.30;;;;;;5012498;28;20457;-73
2022/04/04 19:18:15;;;;;;;8.13;6.90;;;1.20;96.30;;;;;;5011616;28;20169;-74
2022/04/04 19:20:40;;;;;;;8.40;7.50;;;1.20;96.30;;;;;;5012426;28;20427;-72
2022/04/04 19:23:08;;;;;;;8.20;7.40;;;1.20;96.30;;;;;;5000158;28;20662;-72
2022/04/04 19:25:35;;;;;;;8.30;7.53;;;1.20;96.30;;;;;;4975571;28;20194;-72
2022/04/04 19:28:01;;;;;;;9.60;8.50;;;1.20;96.30;;;;;;4992532;28;20409;-71
2022/04/04 19:30:27;;;;;;;7.43;6.43;;;1.30;96.30;;;;;;4992606;28;20507;-69
2022/04/04 19:32:53;;;;;;;8.07;7.00;;;1.30;96.30;;;;;;4992564;28;20556;-69
2022/04/04 19:35:19;;;;;;;8.10;6.77;;;1.30;96.30;;;;;;4992703;28;20995;-70
2022/04/04 19:37:44;;;;;;;9.47;7.33;;;1.30;96.30;;;;;;4992291;28;20169;-73
2022/04/04 19:40:10;;;;;;;8.30;7.47;;;1.40;96.30;;;;;;4992598;28;20170;-69
2022/04/04 19:42:36;;;;;;;7.90;7.17;;;1.50;96.30;;;;;;5005847;28;20224;-69
2022/04/04 19:45:02;;;;;;;7.87;7.07;;;1.40;96.30;;;;;;5012254;28;20451;-69
2022/04/04 19:47:27;;;;;;;8.13;7.30;;;1.50;96.30;;;;;;5010643;28;20536;-69
2022/04/04 19:49:53;;;;;;;7.57;6.77;;;1.50;96.30;;;;;;5012219;28;20251;-71
2022/04/04 19:52:19;;;;;;;7.30;6.47;;;1.70;96.30;;;;;;5011368;28;20838;-69
2022/04/04 19:54:44;;;;;;;7.50;6.80;;;1.80;96.30;;;;;;5012156;28;20219;-70
2022/04/04 19:57:12;;;;;;;9.20;6.60;;;1.80;96.30;;;;;;5012126;28;20240;-69
2022/04/04 19:59:39;;;;;;;6.90;6.30;;;1.90;96.30;;;;;;5012136;28;20165;-71
2022/04/04 20:02:06;;;;;;;6.90;6.30;;;1.80;96.30;;;;;;5012055;28;20431;-69
2022/04/04 20:04:32;;;;;;;11.90;6.30;;;1.70;96.30;;;;;;5012096;28;20474;-74
2022/04/04 20:06:58;;;;;;;10.90;7.77;;;1.90;96.30;;;;;;5011940;28;20420;-69
2022/04/04 20:09:25;;;;;;;10.70;7.70;;;1.90;96.30;;;;;;5010880;28;20166;-73
2022/04/04 20:11:51;;;;;;;7.57;6.07;;;1.80;96.30;;;;;;5011803;28;20478;-69
2022/04/04 20:14:17;;;;;;;6.80;6.00;;;1.80;96.30;;;;;;5011636;28;20415;-70
2022/04/04 20:16:42;;;;;;;6.37;5.77;;;1.80;96.30;;;;;;5011926;28;20165;-69
2022/04/04 20:19:08;;;;;;;6.57;5.97;;;1.90;96.30;;;;;;5011665;28;20408;-70
2022/04/04 20:21:33;;;;;;;5.93;5.33;;;1.90;96.30;;;;;;5011802;28;20196;-69
2022/04/04 20:23:59;;;;;;;7.40;5.73;;;1.90;96.30;;;;;;5011917;28;20230;-70
2022/04/04 20:26:25;;;;;;;6.53;5.10;;;1.90;96.30;;;;;;5011869;28;20185;-70
2022/04/04 20:28:50;;;;;;;4.20;3.80;;;2.00;96.30;;;;;;5013147;28;20169;-73
2022/04/04 20:31:17;;;;;;;6.83;6.13;;;2.00;96.30;;;;;;5015479;28;20193;-70
2022/04/04 20:33:43;;;;;;;10.10;5.70;;;2.00;96.30;;;;;;5015387;28;20593;-70
2022/04/04 20:36:08;;;;;;;7.00;5.83;;;1.90;96.30;;;;;;5015446;28;20478;-73
2022/04/04 20:38:34;;;;;;;7.17;5.40;;;2.00;96.30;;;;;;5015205;28;20248;-70
2022/04/04 20:41:00;;;;;;;7.07;6.47;;;2.00;96.30;;;;;;5015258;28;20193;-70
2022/04/04 20:43:26;;;;;;;6.03;5.47;;;2.00;96.30;;;;;;4997669;28;20235;-70
2022/04/04 20:45:52;;;;;;;9.43;5.90;;;2.00;96.30;;;;;;5015237;28;20173;-70
2022/04/04 20:48:18;;;;;;;6.77;6.10;;;2.00;96.30;;;;;;5005898;28;20957;-71
2022/04/04 20:50:45;;;;;;;6.63;5.90;;;2.00;96.30;;;;;;4995495;28;20593;-71
2022/04/04 20:53:10;;;;;;;6.23;5.73;;;1.90;96.30;;;;;;4995796;28;20452;-71
2022/04/04 20:55:36;;;;;;;6.70;6.00;;;1.80;96.30;;;;;;4994247;28;20936;-71
2022/04/04 20:58:02;;;;;;;6.93;6.23;;;1.70;96.30;;;;;;4995243;28;20184;-72
2022/04/04 21:00:27;;;;;;;5.13;4.63;;;1.70;96.30;;;;;;4995214;28;20239;-74
2022/04/04 21:02:53;;;;;;;9.47;6.90;;;1.70;96.30;;;;;;4994088;28;20181;-75
2022/04/04 21:05:18;;;;;;;25.23;11.73;;;1.70;96.30;;;;;;4994036;28;20793;-71
2022/04/04 21:07:44;;;;;;;6.90;6.20;;;1.70;96.30;;;;;;5011997;28;20176;-72
2022/04/04 21:10:10;;;;;;;16.07;9.10;;;1.80;96.30;;;;;;5014784;28;20208;-72
2022/04/04 21:12:35;;;;;;;9.53;7.07;;;1.70;96.30;;;;;;5014607;28;20197;-71
2022/04/04 21:15:03;;;;;;;7.23;5.97;;;1.70;96.30;;;;;;4997352;28;20509;-72
2022/04/04 21:17:30;;;;;;;8.30;6.70;;;1.70;96.30;;;;;;4997071;28;20595;-72
2022/04/04 21:19:59;;;;;;;7.43;6.47;;;1.80;96.30;;;;;;5014572;28;20432;-71
2022/04/04 21:22:26;;;;;;;5.37;4.87;;;1.80;96.30;;;;;;5014434;28;20510;-71
2022/04/04 21:24:51;;;;;;;6.43;5.83;;;1.80;96.30;;;;;;5014542;28;20995;-72
2022/04/04 21:27:17;;;;;;;7.97;7.20;;;1.80;96.30;;;;;;5014435;28;20447;-72
2022/04/04 21:29:42;;;;;;;5.97;5.37;;;1.80;96.30;;;;;;5014220;28;20584;-75
2022/04/04 21:32:09;;;;;;;7.40;6.70;;;1.90;96.30;;;;;;5014104;28;20247;-71
2022/04/04 21:34:35;;;;;;;18.63;11.57;;;1.90;96.30;;;;;;4996760;28;20181;-72
2022/04/04 21:37:00;;;;;;;7.67;5.90;;;2.00;96.30;;;;;;5014271;28;21132;-72
2022/04/04 21:39:27;;;;;;;6.77;6.17;;;2.00;96.30;;;;;;4996440;28;20452;-72
2022/04/04 21:41:52;;;;;;;5.53;5.03;;;2.00;96.30;;;;;;5013852;28;20207;-72
2022/04/04 21:44:18;;;;;;;6.00;5.50;;;2.00;96.30;;;;;;5014193;28;20420;-72
2022/04/04 21:46:43;;;;;;;7.10;5.93;;;2.00;96.30;;;;;;5014068;28;20597;-74
2022/04/04 21:49:09;;;;;;;7.73;6.93;;;2.00;96.30;;;;;;4996453;28;20189;-76
2022/04/04 21:51:34;;;;;;;9.70;5.53;;;2.00;96.30;;;;;;4996262;28;20208;-72
2022/04/04 21:54:00;;;;;;;6.87;6.17;;;2.00;96.30;;;;;;5013853;28;20231;-73
2022/04/04 21:56:26;;;;;;;6.93;5.80;;;2.00;96.30;;;;;;5014028;28;20181;-73
2022/04/04 21:58:51;;;;;;;7.47;5.03;;;2.10;96.30;;;;;;5013591;28;20427;-73
2022/04/04 22:01:17;;;;;;;4.73;4.33;;;2.00;96.30;;;;;;5013789;28;20193;-73
2022/04/04 22:03:42;;;;;;;5.87;5.37;;;2.10;96.30;;;;;;5013665;28;20564;-73
2022/04/04 22:06:08;;;;;;;6.73;6.03;;;2.10;96.30;;;;;;5007143;28;20204;-73
2022/04/04 22:08:34;;;;;;;7.17;5.87;;;2.10;96.30;;;;;;4976245;28;20212;-73
2022/04/04 22:10:59;;;;;;;5.93;5.33;;;2.00;96.30;;;;;;5001475;28;20227;-76
2022/04/04 22:13:26;;;;;;;7.40;6.00;;;2.10;96.30;;;;;;5013579;28;20634;-73
2022/04/04 22:15:53;;;;;;;7.23;6.53;;;2.10;96.30;;;;;;5013546;28;20165;-74
2022/04/04 22:18:18;;;;;;;6.50;5.50;;;2.10;96.30;;;;;;5013247;28;20416;-74
2022/04/04 22:20:44;;;;;;;8.20;5.20;;;2.10;96.30;;;;;;4995774;28;20486;-75
2022/04/04 22:23:09;;;;;;;15.10;6.13;;;2.20;96.30;;;;;;5013420;28;20173;-73
2022/04/04 22:25:35;;;;;;;6.97;5.20;;;2.20;96.30;;;;;;4995789;28;20653;-73
2022/04/04 22:28:00;;;;;;;15.17;5.30;;;2.30;96.30;;;;;;5013115;28;20200;-74
2022/04/04 22:30:26;;;;;;;5.73;5.13;;;2.30;96.30;;;;;;5013214;28;20188;-74
2022/04/04 22:32:52;;;;;;;5.70;5.20;;;2.30;96.30;;;;;;4995512;28;20243;-74
2022/04/04 22:35:17;;;;;;;6.63;5.63;;;2.30;96.30;;;;;;5013223;28;20252;-74
2022/04/04 22:37:47;;;;;;;5.40;4.90;;;2.30;96.30;;;;;;5012991;28;20173;-74
2022/04/04 22:40:15;;;;;;;5.80;5.30;;;2.30;96.30;;;;;;5013198;28;20153;-75
2022/04/04 22:42:41;;;;;;;6.57;5.90;;;2.30;96.30;;;;;;5013001;28;20431;-76
2022/04/04 22:45:12;;;;;;;5.60;4.80;;;2.40;96.30;;;;;;5013053;28;20991;-75
2022/04/04 22:47:39;;;;;;;7.80;5.00;;;2.40;96.30;;;;;;4995247;28;20550;-75
2022/04/04 22:50:05;;;;;;;6.60;6.07;;;2.40;96.30;;;;;;5012975;28;20408;-74
2022/04/04 22:52:30;;;;;;;6.03;5.43;;;2.40;96.30;;;;;;5011916;28;20474;-74
2022/04/04 22:54:56;;;;;;;6.73;6.13;;;2.40;96.30;;;;;;5012772;28;20423;-75
2022/04/04 22:57:21;;;;;;;7.13;6.43;;;2.40;96.30;;;;;;4993731;28;20633;-76
2022/04/04 22:59:47;;;;;;;5.53;4.97;;;2.40;96.30;;;;;;4993269;28;20170;-75
2022/04/04 23:02:13;;;;;;;6.53;5.97;;;2.30;96.30;;;;;;4993103;28;20240;-75
2022/04/04 23:04:38;;;;;;;6.40;5.80;;;2.30;96.30;;;;;;4993061;28;20413;-75
2022/04/04 23:07:04;;;;;;;5.97;5.40;;;2.40;96.30;;;;;;4993076;28;20174;-76
2022/04/04 23:09:29;;;;;;;7.13;5.60;;;2.40;96.30;;;;;;4975337;28;20586;-79
2022/04/04 23:11:55;;;;;;;6.83;5.30;;;2.40;96.30;;;;;;4975597;28;20225;-75
2022/04/04 23:14:20;;;;;;;5.07;4.60;;;2.40;96.30;;;;;;5006361;28;20527;-75
2022/04/04 23:16:46;;;;;;;6.53;6.00;;;2.40;96.30;;;;;;5012503;28;20207;-78
2022/04/04 23:19:11;;;;;;;4.97;4.47;;;2.50;96.30;;;;;;4994773;28;20208;-75
2022/04/04 23:21:37;;;;;;;9.03;6.80;;;2.40;96.30;;;;;;5012456;28;20227;-76
2022/04/04 23:24:02;;;;;;;5.77;5.27;;;2.50;96.30;;;;;;4994897;28;20566;-77
2022/04/04 23:26:28;;;;;;;7.37;6.30;;;2.50;96.30;;;;;;5012580;28;20219;-79
2022/04/04 23:28:53;;;;;;;6.47;5.73;;;2.50;96.30;;;;;;5012300;28;20173;-76
2022/04/04 23:31:19;;;;;;;7.43;6.27;;;2.50;96.30;;;;;;5012300;28;20196;-77
2022/04/04 23:33:44;;;;;;;6.60;5.87;;;2.50;96.30;;;;;;5012300;28;20193;-77
2022/04/04 23:36:10;;;;;;;5.63;5.13;;;2.40;96.30;;;;;;5012435;28;20756;-76
2022/04/04 23:38:36;;;;;;;5.40;4.70;;;2.40;96.30;;;;;;5012219;28;20243;-76
